• Join FlightAware (Why Join?)
  • Login
  • US Flag 
10:27AM EDT


 

Airport Tracker/Info


-or-


 

Live Flight TrackerFlight Track Log ✈ N75ZM ✈ 15-Sep-2013 ✈ KPDK - KRDU

Flight Track Log - Related Links

Times and Time Zones

All times are in EDT time to prevent confusion due to time zone crossing. See the N75ZM flight status page for this flight to view local times or setup timezone preferences in your user account.

Time Position Orientation Groundspeed Altitude Reporting Facility
EDT Latitude Longitude Course Direction KTS MPH feet Rate Location/Type
03:15PM 33.8500 -84.2833 96° East 120 138 2,200  Level Atlanta TRACON
03:16PM 33.8667 -84.2500 59° Northeast 120 138 3,300 1,020 Climbing Atlanta TRACON
03:17PM 33.8667 -84.2000 90° East 129 148 4,200 780 Climbing Atlanta TRACON
03:18PM 33.8667 -84.1667 90° East 128 147 4,800 660 Climbing Atlanta TRACON
03:19PM 33.8667 -84.1167 90° East 146 168 5,500 660 Climbing Atlanta TRACON
03:20PM 33.8500 -84.0833 121° Southeast 143 165 6,200 660 Climbing Atlanta TRACON
03:21PM 34.0062 -83.9695 96° East  Level Estimated
03:21PM 33.8500 -84.0333 90° East 140 161 6,900  Level Atlanta TRACON
03:22PM 33.8500 -83.9833 90° East 151 174 7,400 480 Climbing Atlanta TRACON
03:23PM 33.8500 -83.9333 90° East 160 184 7,900 480 Climbing Atlanta TRACON
03:24PM 33.8500 -83.8667 90° East 166 191 8,400 480 Climbing Atlanta TRACON
03:25PM 33.8333 -83.8167 112° Southeast 166 191 8,900 360 Climbing Atlanta TRACON
03:26PM 33.8333 -83.7667 90° East 167 192 9,100 60 Climbing Atlanta TRACON
03:27PM 33.8333 -83.7000 90° East 183 211 9,100  Level Atlanta TRACON
03:28PM 33.8333 -83.6500 90° East 178 205 9,100  Level Atlanta TRACON
03:29PM 33.8167 -83.5833 107° East 178 205 9,100  Level Atlanta TRACON
03:30PM 33.8167 -83.5333 90° East 181 208 9,100  Level Atlanta TRACON
03:31PM 33.8167 -83.4667 90° East 180 207 9,100  Level Atlanta TRACON
03:32PM 33.8167 -83.4167 90° East 185 213 9,200  Climbing Atlanta TRACON
03:33PM 33.8000 -83.3500 107° East 182 209 9,100 -60 Descending Atlanta TRACON
03:34PM 33.8000 -83.2833 90° East 186 214 9,100  Level Atlanta TRACON
03:35PM 33.8000 -83.2333 90° East 186 214 9,100  Level Atlanta TRACON
03:36PM 33.7833 -83.1667 107° East 181 208 9,100 -60 Level Atlanta TRACON
03:38PM 33.7834 -83.0708 90° East  Level FlightAware Approximate
03:45PM 33.7531 -82.6434 97° East  Level FlightAware Approximate
03:46PM 33.7467 -82.5827 97° East  Level FlightAware Approximate
03:47PM 33.7402 -82.5220 97° East  Level FlightAware Approximate
03:48PM 33.7337 -82.4613 97° East  Level FlightAware Approximate
03:49PM 33.7272 -82.4007 97° East  Level FlightAware Approximate
03:50PM 33.7207 -82.3400 97° East  Level FlightAware Approximate
03:51PM 33.7141 -82.2794 97° East  Level FlightAware Approximate
03:52PM 33.7075 -82.2188 97° East  Level FlightAware Approximate
03:53PM 33.7009 -82.1581 97° East  Level FlightAware Approximate
03:54PM 33.7068 -82.0977 81° East  Level FlightAware Approximate
03:55PM 33.7147 -82.0373 81° East  Level FlightAware Approximate
03:56PM 33.7226 -81.9769 81° East  Level FlightAware Approximate
03:57PM 33.7304 -81.9164 81° East  Level FlightAware Approximate
03:58PM 33.7382 -81.8560 81° East  Level FlightAware Approximate
03:59PM 33.7460 -81.7955 81° East  Level FlightAware Approximate
04:00PM 33.7537 -81.7350 81° East  Level FlightAware Approximate
04:01PM 33.7614 -81.6746 81° East  Level FlightAware Approximate
04:02PM 33.7695 -81.6141 80° East  Level FlightAware Approximate
04:03PM 33.7782 -81.5538 80° East  Level FlightAware Approximate
04:04PM 33.7869 -81.4936 80° East  Level FlightAware Approximate
04:05PM 33.7956 -81.4332 80° East  Level FlightAware Approximate
04:06PM 33.8042 -81.3729 80° East  Level FlightAware Approximate
04:07PM 33.8129 -81.3126 80° East  Level FlightAware Approximate
04:08PM 33.8214 -81.2522 80° East  Level FlightAware Approximate
04:09PM 33.8300 -81.1919 80° East  Level FlightAware Approximate
04:10PM 33.8385 -81.1315 80° East  Level FlightAware Approximate
04:11PM 33.8470 -81.0711 80° East  Level FlightAware Approximate
04:12PM 33.8745 -81.0232 42° Northeast  Level FlightAware Approximate
04:13PM 33.9120 -80.9819 42° Northeast  Level FlightAware Approximate
04:14PM 33.9496 -80.9405 42° Northeast  Level FlightAware Approximate
04:15PM 33.9872 -80.8992 42° Northeast  Level FlightAware Approximate
04:16PM 34.0249 -80.8580 41° Northeast  Level FlightAware Approximate
04:17PM 34.0632 -80.8176 41° Northeast  Level FlightAware Approximate
04:18PM 34.1015 -80.7772 41° Northeast  Level FlightAware Approximate
04:19PM 34.1398 -80.7367 41° Northeast  Level FlightAware Approximate
04:20PM 34.1780 -80.6962 41° Northeast  Level FlightAware Approximate
04:21PM 34.2163 -80.6556 41° Northeast  Level FlightAware Approximate
04:22PM 34.2545 -80.6150 41° Northeast  Level FlightAware Approximate
04:23PM 34.2927 -80.5744 41° Northeast  Level FlightAware Approximate
04:24PM 34.3310 -80.5339 41° Northeast  Level FlightAware Approximate
04:25PM 34.3693 -80.4933 41° Northeast  Level FlightAware Approximate
04:26PM 34.4076 -80.4527 41° Northeast  Level FlightAware Approximate
04:27PM 34.4458 -80.4120 41° Northeast  Level FlightAware Approximate
04:28PM 34.4841 -80.3714 41° Northeast  Level FlightAware Approximate
04:29PM 34.5223 -80.3306 41° Northeast  Level FlightAware Approximate
04:30PM 34.5605 -80.2899 41° Northeast  Level FlightAware Approximate
04:31PM 34.5975 -80.2475 44° Northeast  Level FlightAware Approximate
04:32PM 34.6342 -80.2047 44° Northeast  Level FlightAware Approximate
04:33PM 34.6709 -80.1619 44° Northeast  Level FlightAware Approximate
04:34PM 34.7050 -80.1239 43° Northeast  Level Estimated
04:35PM 34.7390 -80.0859 43° Northeast  Level Estimated
04:36PM 34.7730 -80.0479 43° Northeast  Level Estimated
04:37PM 34.8070 -80.0098 43° Northeast  Level Estimated
04:38PM 34.8410 -79.9717 43° Northeast  Level Estimated
04:39PM 34.8750 -79.9335 43° Northeast  Level Estimated
04:40PM 34.9090 -79.8954 43° Northeast  Level Estimated
04:41PM 34.9429 -79.8572 43° Northeast  Level Estimated
04:42PM 34.9776 -79.8181 43° Northeast  Level Estimated
04:43PM 35.0123 -79.7790 43° Northeast  Level Estimated
04:44PM 35.0469 -79.7399 43° Northeast  Level Estimated
04:45PM 35.0816 -79.7007 43° Northeast  Level Estimated
04:46PM 35.1162 -79.6615 43° Northeast  Level Estimated
04:47PM 35.1508 -79.6223 43° Northeast  Level Estimated
04:48PM 35.1854 -79.5831 43° Northeast  Level Estimated
04:49PM 35.2200 -79.5438 43° Northeast  Level Estimated
04:49PM 35.3078 -79.4989 43° Northeast 196 226 5,700  Level Washington Center
04:50PM 35.2546 -79.5044 43° Northeast  Level Estimated
04:51PM 35.2892 -79.4651 43° Northeast  Level Estimated
04:51PM 35.3619 -79.4328 45° Northeast 199 229 5,100  Level Washington Center
04:52PM 35.3237 -79.4257 43° Northeast  Level Estimated
04:52PM 35.3969 -79.3886 46° Northeast 190 219 5,100  Level Washington Center
04:53PM 35.3582 -79.3863 43° Northeast  Level Estimated
04:53PM 35.4336 -79.3444 44° Northeast 182 209 5,100  Level Washington Center
04:54PM 35.3928 -79.3468 43° Northeast  Level Estimated
04:54PM 35.4661 -79.3053 44° Northeast 180 207 5,100  Level Washington Center
04:55PM 35.4273 -79.3073 43° Northeast  Level Estimated
04:55PM 35.5053 -79.2558 46° Northeast 181 208 5,100  Level Washington Center
04:56PM 35.5400 -79.2142 44° Northeast 180 207 5,100  Level Washington Center
04:57PM 35.5664 -79.1669 56° Northeast 179 206 5,100  Level Washington Center
04:58PM 35.5956 -79.1042 60° Northeast 182 209 5,100 -240 Level Washington Center
04:59PM 35.6219 -79.0492 59° Northeast 190 219 4,600 -540 Descending Washington Center
05:00PM 35.6386 -78.9861 72° East 192 221 4,100 -300 Descending Washington Center
05:01PM 35.6586 -78.9358 64° Northeast 183 211 4,100  Level Washington Center
05:02PM 35.6747 -78.8803 70° East 178 205 4,100 -60 Level Washington Center
05:03PM 35.6908 -78.8247 70° East 176 203 4,000 -300 Descending Washington Center
05:04PM 35.7197 -78.7669 58° Northeast 176 203 3,500 -540 Descending Washington Center
05:05PM 35.7542 -78.7247 45° Northeast 170 196 2,900 -600 Descending Washington Center
05:06PM 35.7925 -78.6956 32° Northeast 165 190 2,400 -600 Descending Washington Center
05:07PM 35.8250 -78.7250 324° Northwest 158 182 1,800 -660 Descending Washington Center
05:08PM 35.8553 -78.7647 313° West 95 109 900 -660 Descending Washington Center
05:10PM 35.8667 -78.7833 355° North  Level FlightAware Approximate
05:17PM 35.8776 -78.7875 355° North  Level Estimated